createdAt,value
2023-02-05T00:01:14.357Z,29.70
2023-02-05T00:03:40.580Z,29.70
2023-02-05T00:06:06.786Z,29.70
2023-02-05T00:08:34.125Z,29.70
2023-02-05T00:11:06.923Z,29.70
2023-02-05T00:13:32.963Z,29.70
2023-02-05T00:15:59.006Z,29.70
2023-02-05T00:18:25.045Z,29.70
2023-02-05T00:20:51.129Z,29.70
2023-02-05T00:23:17.171Z,29.70
2023-02-05T00:25:43.229Z,29.70
2023-02-05T00:28:09.311Z,29.70
2023-02-05T00:30:35.461Z,29.70
2023-02-05T00:33:01.572Z,29.70
2023-02-05T00:35:27.644Z,29.70
2023-02-05T00:37:53.699Z,29.70
2023-02-05T00:40:19.789Z,29.70
2023-02-05T00:42:45.871Z,29.70
2023-02-05T00:45:11.921Z,29.70
2023-02-05T00:47:38.084Z,29.70
2023-02-05T00:50:04.574Z,29.70
2023-02-05T00:52:30.792Z,29.70
2023-02-05T00:54:57.648Z,29.70
2023-02-05T00:57:24.145Z,29.70
2023-02-05T00:59:53.310Z,29.70
2023-02-05T01:02:24.443Z,29.70
2023-02-05T01:04:51.870Z,29.70
2023-02-05T01:07:20.951Z,29.70
2023-02-05T01:09:47.014Z,29.70
2023-02-05T01:12:16.096Z,29.70
2023-02-05T01:14:42.209Z,29.70
2023-02-05T01:17:08.762Z,29.70
2023-02-05T01:19:36.403Z,29.70
2023-02-05T01:22:03.469Z,29.70
2023-02-05T01:24:29.641Z,29.70
2023-02-05T01:26:57.972Z,29.70
2023-02-05T01:29:25.162Z,29.70
2023-02-05T01:31:51.436Z,29.70
2023-02-05T01:34:17.537Z,29.70
2023-02-05T01:36:43.668Z,29.70
2023-02-05T01:39:09.736Z,29.70
2023-02-05T01:41:36.325Z,29.80
2023-02-05T01:44:07.970Z,29.80
2023-02-05T01:46:35.966Z,29.80
2023-02-05T01:49:03.890Z,29.70
2023-02-05T01:51:32.848Z,29.80
2023-02-05T01:53:59.852Z,29.70
2023-02-05T01:56:42.932Z,29.70
2023-02-05T01:59:15.256Z,29.70
2023-02-05T02:01:42.201Z,29.70
2023-02-05T02:04:10.890Z,29.80
2023-02-05T02:06:37.080Z,29.80
2023-02-05T02:09:05.444Z,29.70
2023-02-05T02:11:37.296Z,29.70
2023-02-05T02:14:08.057Z,29.80
2023-02-05T02:16:36.270Z,29.70
2023-02-05T02:19:09.751Z,29.70
2023-02-05T02:21:53.355Z,29.70
2023-02-05T02:24:47.244Z,29.70
2023-02-05T02:27:32.172Z,29.80
2023-02-05T02:30:00.590Z,29.80
2023-02-05T02:32:39.460Z,29.80
2023-02-05T02:35:28.199Z,29.80
2023-02-05T02:38:10.258Z,29.80
2023-02-05T02:40:48.660Z,29.80
2023-02-05T02:43:21.595Z,29.80
2023-02-05T02:45:52.610Z,29.80
2023-02-05T02:48:21.640Z,29.80
2023-02-05T02:50:51.415Z,29.80
2023-02-05T02:53:21.907Z,29.80
2023-02-05T02:55:50.169Z,29.80
2023-02-05T02:58:23.803Z,29.80
2023-02-05T03:00:52.015Z,29.80
2023-02-05T03:03:20.780Z,29.80
2023-02-05T03:05:49.092Z,29.80
2023-02-05T03:08:24.476Z,29.80
2023-02-05T03:10:58.714Z,29.80
2023-02-05T03:13:25.037Z,29.80
2023-02-05T03:15:52.259Z,29.80
2023-02-05T03:18:19.283Z,29.80
2023-02-05T03:20:57.141Z,29.80
2023-02-05T03:23:25.732Z,29.80
2023-02-05T03:25:51.812Z,29.80
2023-02-05T03:28:18.079Z,29.80
2023-02-05T03:30:54.448Z,29.80
2023-02-05T03:33:39.318Z,29.80
2023-02-05T03:36:23.739Z,29.80
2023-02-05T03:39:20.475Z,29.80
2023-02-05T03:42:05.641Z,29.80
2023-02-05T03:44:34.512Z,29.80
2023-02-05T03:47:08.105Z,29.80
2023-02-05T03:49:43.514Z,29.80
2023-02-05T03:52:15.992Z,29.80
2023-02-05T03:54:56.924Z,29.80
2023-02-05T03:57:38.238Z,29.80
2023-02-05T04:00:05.586Z,29.80
2023-02-05T04:02:31.753Z,29.80
2023-02-05T04:04:57.836Z,29.80
2023-02-05T04:07:23.916Z,29.80
2023-02-05T04:09:50.029Z,29.80
2023-02-05T04:12:16.207Z,29.80
2023-02-05T04:14:42.381Z,29.90
2023-02-05T04:17:11.449Z,29.80
2023-02-05T04:19:38.316Z,29.80
2023-02-05T04:22:04.425Z,29.90
2023-02-05T04:24:30.452Z,29.90
2023-02-05T04:26:56.506Z,29.90
2023-02-05T04:29:22.591Z,29.80
2023-02-05T04:31:48.739Z,29.90
2023-02-05T04:34:14.914Z,29.90
2023-02-05T04:36:41.236Z,29.90
2023-02-05T04:39:07.430Z,29.90
2023-02-05T04:41:33.519Z,29.90
2023-02-05T04:43:59.617Z,29.90
2023-02-05T04:46:25.724Z,29.90
2023-02-05T04:48:51.770Z,29.90
2023-02-05T04:51:17.977Z,29.90
2023-02-05T04:53:44.067Z,29.90
2023-02-05T04:56:13.388Z,29.90
2023-02-05T04:58:40.142Z,29.90
2023-02-05T05:01:12.853Z,29.90
2023-02-05T05:03:39.533Z,29.80
2023-02-05T05:06:06.416Z,29.90
2023-02-05T05:08:32.915Z,29.90
2023-02-05T05:10:59.306Z,29.90
2023-02-05T05:13:25.880Z,29.90
2023-02-05T05:15:55.790Z,29.90
2023-02-05T05:18:22.072Z,29.90
2023-02-05T05:20:48.144Z,29.90
2023-02-05T05:23:14.229Z,29.90
2023-02-05T05:25:44.460Z,29.90
2023-02-05T05:28:11.290Z,29.90
2023-02-05T05:30:38.819Z,29.80
2023-02-05T05:33:04.964Z,29.80
2023-02-05T05:35:31.684Z,29.80
2023-02-05T05:37:58.793Z,29.80
2023-02-05T05:40:43.988Z,29.80
2023-02-05T05:43:34.911Z,29.80
2023-02-05T05:46:01.176Z,29.70
2023-02-05T05:48:27.908Z,29.70
2023-02-05T05:50:54.052Z,29.60
2023-02-05T05:53:20.279Z,29.60
2023-02-05T05:55:46.457Z,29.60
2023-02-05T05:58:12.895Z,29.50
2023-02-05T06:00:39.766Z,29.50
2023-02-05T06:03:06.245Z,29.50
2023-02-05T06:05:33.649Z,29.40
2023-02-05T06:07:59.955Z,29.40
2023-02-05T06:10:26.277Z,29.40
2023-02-05T06:12:52.406Z,29.40
2023-02-05T06:15:19.247Z,29.40
2023-02-05T06:17:45.763Z,29.30
2023-02-05T06:20:12.391Z,29.30
2023-02-05T06:22:39.347Z,29.20
2023-02-05T06:25:05.986Z,29.20
2023-02-05T06:27:32.404Z,29.10
2023-02-05T06:29:58.491Z,29.10
2023-02-05T06:32:26.841Z,29.10
2023-02-05T06:34:53.006Z,29.00
2023-02-05T06:37:19.043Z,29.00
2023-02-05T06:39:45.134Z,29.00
2023-02-05T06:42:11.215Z,29.50
2023-02-05T06:44:37.265Z,29.00
2023-02-05T06:47:03.341Z,29.00
2023-02-05T06:49:29.397Z,29.00
2023-02-05T06:51:56.375Z,29.00
2023-02-05T06:54:23.472Z,28.90
2023-02-05T06:56:49.675Z,28.90
2023-02-05T06:59:15.761Z,28.90
2023-02-05T07:01:41.822Z,28.90
2023-02-05T07:04:08.276Z,28.90
2023-02-05T07:06:34.381Z,28.90
2023-02-05T07:09:00.421Z,28.80
2023-02-05T07:11:26.768Z,29.40
2023-02-05T07:13:52.857Z,28.80
2023-02-05T07:16:18.985Z,28.80
2023-02-05T07:18:45.168Z,28.80
2023-02-05T07:21:15.383Z,28.80
2023-02-05T07:23:42.157Z,28.80
2023-02-05T07:26:10.784Z,28.80
2023-02-05T07:28:36.951Z,28.80
2023-02-05T07:31:05.592Z,28.80
2023-02-05T07:33:32.102Z,28.80
2023-02-05T07:36:01.671Z,28.80
2023-02-05T07:38:27.721Z,28.80
2023-02-05T07:40:53.767Z,28.70
2023-02-05T07:43:19.840Z,29.30
2023-02-05T07:45:46.085Z,28.70
2023-02-05T07:48:12.162Z,28.70
2023-02-05T07:50:44.103Z,28.80
2023-02-05T07:53:10.191Z,28.80
2023-02-05T07:55:36.450Z,28.80
2023-02-05T07:58:02.700Z,28.80
2023-02-05T08:00:28.813Z,28.80
2023-02-05T08:02:54.881Z,28.70
2023-02-05T08:05:20.930Z,28.70
2023-02-05T08:07:47.051Z,28.80
2023-02-05T08:10:13.833Z,28.80
2023-02-05T08:12:39.947Z,28.80
2023-02-05T08:15:06.400Z,28.70
2023-02-05T08:17:32.471Z,28.80
2023-02-05T08:20:02.765Z,28.80
2023-02-05T08:22:28.802Z,28.80
2023-02-05T08:24:54.856Z,28.80
2023-02-05T08:27:20.932Z,28.80
2023-02-05T08:29:48.388Z,28.80
2023-02-05T08:32:14.627Z,28.80
2023-02-05T08:34:40.743Z,28.70
2023-02-05T08:37:06.800Z,28.80
2023-02-05T08:39:32.928Z,28.80
2023-02-05T08:41:58.996Z,28.80
2023-02-05T08:44:25.132Z,28.80
2023-02-05T08:46:51.276Z,28.80
2023-02-05T08:49:17.720Z,28.80
2023-02-05T08:51:44.007Z,29.30
2023-02-05T08:54:12.556Z,28.80
2023-02-05T08:56:39.662Z,28.80
2023-02-05T08:59:06.281Z,28.80
2023-02-05T09:01:32.748Z,28.80
2023-02-05T09:03:58.836Z,28.80
2023-02-05T09:06:24.959Z,28.80
2023-02-05T09:08:51.038Z,28.80
2023-02-05T09:11:21.383Z,28.80
2023-02-05T09:13:47.456Z,28.90
2023-02-05T09:16:13.563Z,28.80
2023-02-05T09:18:39.627Z,28.80
2023-02-05T09:21:07.669Z,28.80
2023-02-05T09:23:34.134Z,28.80
2023-02-05T09:26:00.312Z,28.80
2023-02-05T09:28:26.445Z,28.80
2023-02-05T09:30:52.587Z,28.90
2023-02-05T09:33:18.687Z,28.80
2023-02-05T09:35:44.920Z,28.80
2023-02-05T09:38:15.099Z,28.80
2023-02-05T09:40:53.834Z,28.90
2023-02-05T09:43:28.710Z,28.90
2023-02-05T09:46:00.353Z,28.90
2023-02-05T09:48:50.811Z,28.90
2023-02-05T09:51:24.626Z,28.90
2023-02-05T09:53:57.432Z,28.90
2023-02-05T09:56:26.171Z,28.90
2023-02-05T09:58:55.584Z,28.90
2023-02-05T10:01:49.733Z,28.90
2023-02-05T10:04:15.934Z,28.90
2023-02-05T10:07:08.032Z,28.90
2023-02-05T10:10:01.083Z,28.90
2023-02-05T10:12:59.452Z,28.90
2023-02-05T10:15:25.466Z,28.90
2023-02-05T10:18:12.435Z,28.90
2023-02-05T10:20:43.874Z,28.90
2023-02-05T10:23:28.814Z,28.90
2023-02-05T10:26:05.479Z,28.90
2023-02-05T10:29:06.530Z,28.90
2023-02-05T10:32:04.432Z,28.90
2023-02-05T10:35:02.188Z,28.90
2023-02-05T10:37:43.568Z,28.90
2023-02-05T10:40:19.148Z,28.90
2023-02-05T10:42:51.350Z,28.90
2023-02-05T10:45:25.448Z,29.00
2023-02-05T10:47:59.560Z,29.00
2023-02-05T10:51:00.540Z,29.00
2023-02-05T10:53:27.808Z,28.90
2023-02-05T10:55:55.732Z,29.00
2023-02-05T10:58:32.803Z,28.90
2023-02-05T11:00:59.944Z,29.00
2023-02-05T11:03:26.210Z,29.00
2023-02-05T11:05:53.244Z,29.00
2023-02-05T11:08:38.528Z,29.00
2023-02-05T11:11:05.879Z,29.00
2023-02-05T11:13:36.273Z,29.00
2023-02-05T11:16:10.365Z,29.00
2023-02-05T11:18:40.560Z,29.00
2023-02-05T11:21:08.883Z,29.10
2023-02-05T11:23:39.650Z,29.00
2023-02-05T11:26:21.516Z,29.00
2023-02-05T11:28:47.613Z,29.00
2023-02-05T11:31:24.898Z,29.10
2023-02-05T11:34:08.400Z,29.00
2023-02-05T11:36:46.905Z,29.00
2023-02-05T11:39:29.707Z,29.00
2023-02-05T11:41:57.921Z,29.10
2023-02-05T11:44:29.916Z,29.00
2023-02-05T11:46:59.573Z,29.00
2023-02-05T11:49:33.762Z,29.00
2023-02-05T11:52:07.254Z,29.00
2023-02-05T11:54:34.694Z,29.00
2023-02-05T11:57:30.286Z,29.10
2023-02-05T12:00:08.123Z,29.00
2023-02-05T12:02:37.024Z,29.10
2023-02-05T12:05:12.085Z,29.10
2023-02-05T12:07:46.410Z,29.10
2023-02-05T12:10:18.650Z,29.10
2023-02-05T12:13:14.800Z,29.10
2023-02-05T12:15:45.885Z,29.10
2023-02-05T12:18:34.541Z,29.10
2023-02-05T12:21:14.714Z,29.10
2023-02-05T12:23:40.715Z,29.00
2023-02-05T12:26:35.911Z,29.10
2023-02-05T12:29:16.364Z,29.10
2023-02-05T12:31:56.251Z,29.10
2023-02-05T12:34:28.772Z,29.20
2023-02-05T12:37:05.819Z,29.10
2023-02-05T12:39:53.834Z,29.10
2023-02-05T12:42:28.462Z,29.10
2023-02-05T12:44:54.464Z,29.10
2023-02-05T12:47:26.282Z,29.10
2023-02-05T12:50:04.293Z,29.10
2023-02-05T12:52:48.803Z,29.10
2023-02-05T12:55:40.982Z,29.10
2023-02-05T12:58:11.494Z,29.10
2023-02-05T13:00:47.537Z,29.10
2023-02-05T13:03:38.794Z,29.10
2023-02-05T13:06:27.610Z,29.10
2023-02-05T13:09:02.527Z,29.20
2023-02-05T13:11:56.293Z,29.10
2023-02-05T13:14:29.995Z,29.10
2023-02-05T13:17:04.525Z,29.20
2023-02-05T13:19:41.614Z,29.20
2023-02-05T13:22:37.816Z,29.20
2023-02-05T13:25:42.507Z,29.20
2023-02-05T13:28:32.980Z,29.10
2023-02-05T13:31:01.057Z,29.10
2023-02-05T13:33:27.372Z,29.20
2023-02-05T13:36:24.449Z,29.20
2023-02-05T13:39:12.832Z,29.20
2023-02-05T13:42:00.521Z,29.30
2023-02-05T13:44:38.290Z,29.20
2023-02-05T13:47:43.143Z,29.20
2023-02-05T13:50:12.254Z,29.20
2023-02-05T13:52:41.332Z,29.20
2023-02-05T13:55:25.915Z,29.20
2023-02-05T13:58:13.367Z,29.20
2023-02-05T14:00:42.874Z,29.20
2023-02-05T14:03:24.756Z,29.20
2023-02-05T14:05:50.939Z,29.20
2023-02-05T14:08:22.485Z,29.70
2023-02-05T14:10:58.073Z,29.20
2023-02-05T14:13:30.442Z,29.20
2023-02-05T14:15:57.642Z,29.30
2023-02-05T14:18:44.532Z,29.30
2023-02-05T14:21:33.272Z,29.30
2023-02-05T14:24:02.153Z,29.30
2023-02-05T14:26:51.624Z,29.30
2023-02-05T14:29:47.367Z,29.30
2023-02-05T14:32:38.926Z,29.30
2023-02-05T14:35:32.118Z,29.30
2023-02-05T14:38:14.040Z,29.30
2023-02-05T14:40:40.642Z,29.30
2023-02-05T14:43:31.314Z,29.30
2023-02-05T14:46:18.154Z,29.30
2023-02-05T14:48:47.679Z,29.30
2023-02-05T14:51:24.028Z,29.30
2023-02-05T14:53:57.143Z,29.30
2023-02-05T14:56:33.651Z,29.30
2023-02-05T14:59:19.163Z,29.30
2023-02-05T15:01:49.362Z,29.30
2023-02-05T15:04:30.861Z,29.30
2023-02-05T15:07:00.002Z,29.30
2023-02-05T15:09:58.539Z,29.30
2023-02-05T15:12:41.586Z,29.30
2023-02-05T15:15:28.718Z,29.30
2023-02-05T15:17:58.817Z,29.30
2023-02-05T15:20:32.350Z,29.30
2023-02-05T15:23:04.271Z,29.30
2023-02-05T15:25:37.815Z,29.30
2023-02-05T15:28:16.351Z,29.30
2023-02-05T15:30:52.582Z,29.30
2023-02-05T15:33:33.760Z,29.30
2023-02-05T15:36:12.171Z,29.30
2023-02-05T15:38:47.798Z,29.30
2023-02-05T15:41:15.305Z,29.40
2023-02-05T15:43:58.208Z,29.40
2023-02-05T15:46:24.822Z,29.30
2023-02-05T15:48:50.963Z,29.40
2023-02-05T15:51:32.445Z,29.40
2023-02-05T15:54:02.366Z,29.30
2023-02-05T15:56:35.144Z,29.40
2023-02-05T15:59:10.783Z,29.40
2023-02-05T16:01:40.221Z,29.40
2023-02-05T16:04:30.090Z,29.40
2023-02-05T16:06:57.145Z,29.40
2023-02-05T16:09:25.893Z,29.40
2023-02-05T16:11:52.374Z,29.40
2023-02-05T16:14:21.696Z,29.30
2023-02-05T16:17:03.543Z,29.40
2023-02-05T16:19:44.379Z,29.40
2023-02-05T16:22:40.504Z,29.40
2023-02-05T16:25:32.711Z,29.40
2023-02-05T16:28:02.341Z,29.40
2023-02-05T16:30:43.710Z,29.30
2023-02-05T16:33:38.123Z,29.30
2023-02-05T16:36:12.217Z,29.30
2023-02-05T16:38:38.314Z,29.30
2023-02-05T16:41:18.002Z,29.20
2023-02-05T16:43:44.347Z,29.20
2023-02-05T16:46:20.840Z,29.20
2023-02-05T16:48:46.917Z,29.20
2023-02-05T16:51:55.627Z,29.20
2023-02-05T16:54:34.250Z,29.10
2023-02-05T16:57:09.277Z,29.00
2023-02-05T17:00:04.260Z,29.00
2023-02-05T17:02:36.289Z,29.00
2023-02-05T17:05:07.824Z,28.90
2023-02-05T17:07:34.245Z,28.90
2023-02-05T17:10:20.684Z,28.90
2023-02-05T17:12:56.986Z,28.80
2023-02-05T17:15:29.797Z,28.80
2023-02-05T17:18:09.336Z,28.80
2023-02-05T17:20:35.749Z,28.80
2023-02-05T17:23:04.917Z,28.70
2023-02-05T17:25:42.550Z,28.70
2023-02-05T17:28:15.896Z,28.70
2023-02-05T17:30:44.343Z,28.60
2023-02-05T17:33:15.469Z,28.60
2023-02-05T17:35:41.539Z,28.60
2023-02-05T17:38:07.795Z,28.50
2023-02-05T17:40:34.244Z,28.50
2023-02-05T17:43:00.478Z,28.50
2023-02-05T17:45:31.150Z,28.50
2023-02-05T17:47:57.228Z,28.40
2023-02-05T17:50:23.362Z,28.40
2023-02-05T17:52:51.496Z,28.40
2023-02-05T17:55:19.999Z,28.40
2023-02-05T17:57:46.437Z,28.30
2023-02-05T18:00:31.875Z,28.30
2023-02-05T18:02:58.186Z,28.20
2023-02-05T18:05:24.422Z,28.20
2023-02-05T18:07:53.997Z,27.30
2023-02-05T18:10:24.331Z,27.70
2023-02-05T18:12:51.277Z,27.90
2023-02-05T18:15:18.125Z,27.90
2023-02-05T18:17:44.306Z,27.90
2023-02-05T18:20:12.031Z,28.00
2023-02-05T18:22:38.435Z,28.00
2023-02-05T18:25:05.649Z,28.00
2023-02-05T18:27:31.944Z,28.00
2023-02-05T18:29:58.010Z,28.00
2023-02-05T18:32:24.618Z,28.00
2023-02-05T18:34:50.854Z,28.00
2023-02-05T18:37:17.238Z,28.00
2023-02-05T18:39:44.368Z,28.00
2023-02-05T18:42:12.120Z,28.00
2023-02-05T18:44:38.913Z,28.00
2023-02-05T18:47:06.524Z,28.00
2023-02-05T18:49:33.840Z,28.10
2023-02-05T18:52:00.664Z,28.10
2023-02-05T18:54:26.832Z,28.10
2023-02-05T18:56:54.014Z,28.10
2023-02-05T18:59:23.415Z,28.10
2023-02-05T19:01:50.411Z,28.00
2023-02-05T19:04:20.137Z,28.10
2023-02-05T19:06:51.455Z,28.10
2023-02-05T19:09:19.650Z,28.10
2023-02-05T19:11:45.839Z,28.10
2023-02-05T19:14:14.889Z,28.10
2023-02-05T19:16:41.861Z,28.10
2023-02-05T19:19:08.201Z,28.10
2023-02-05T19:21:35.459Z,28.10
2023-02-05T19:24:06.388Z,28.10
2023-02-05T19:26:34.600Z,28.10
2023-02-05T19:29:04.079Z,28.10
2023-02-05T19:31:32.666Z,28.00
2023-02-05T19:33:59.480Z,28.10
2023-02-05T19:36:26.098Z,28.10
2023-02-05T19:38:53.169Z,28.10
2023-02-05T19:41:25.496Z,28.10
2023-02-05T19:43:57.487Z,28.10
2023-02-05T19:46:27.349Z,28.10
2023-02-05T19:48:58.805Z,28.10
2023-02-05T19:51:24.932Z,28.10
2023-02-05T19:53:51.066Z,28.20
2023-02-05T19:56:20.710Z,28.20
2023-02-05T19:58:49.738Z,28.20
2023-02-05T20:01:25.021Z,28.20
2023-02-05T20:03:53.549Z,28.10
2023-02-05T20:06:21.047Z,28.10
2023-02-05T20:08:47.701Z,28.10
2023-02-05T20:11:14.350Z,28.20
2023-02-05T20:13:41.230Z,28.10
2023-02-05T20:16:13.280Z,28.10
2023-02-05T20:18:40.511Z,28.10
2023-02-05T20:21:12.593Z,28.10
2023-02-05T20:23:38.758Z,28.20
2023-02-05T20:26:06.714Z,28.20
2023-02-05T20:28:55.318Z,28.20
2023-02-05T20:31:32.495Z,28.20
2023-02-05T20:33:59.677Z,28.20
2023-02-05T20:36:25.747Z,28.20
2023-02-05T20:38:59.471Z,28.20
2023-02-05T20:41:25.802Z,28.30
2023-02-05T20:43:52.210Z,28.20
2023-02-05T20:46:18.410Z,28.20
2023-02-05T20:48:44.504Z,28.20
2023-02-05T20:51:16.278Z,28.20
2023-02-05T20:53:43.176Z,28.20
2023-02-05T20:56:14.617Z,28.30
2023-02-05T20:58:41.270Z,28.20
2023-02-05T21:01:13.408Z,28.20
2023-02-05T21:03:42.895Z,28.20
2023-02-05T21:06:09.653Z,28.20
2023-02-05T21:08:40.025Z,28.30
2023-02-05T21:11:06.434Z,28.20
2023-02-05T21:13:32.759Z,28.30
2023-02-05T21:16:00.154Z,28.20
2023-02-05T21:18:27.582Z,28.20
2023-02-05T21:20:54.077Z,28.20
2023-02-05T21:23:21.003Z,28.20
2023-02-05T21:25:47.224Z,28.20
2023-02-05T21:28:13.846Z,28.20
2023-02-05T21:30:42.296Z,28.20
2023-02-05T21:33:08.352Z,28.20
2023-02-05T21:35:37.807Z,28.20
2023-02-05T21:38:03.896Z,28.20
2023-02-05T21:40:30.048Z,28.30
2023-02-05T21:42:56.096Z,28.20
2023-02-05T21:45:22.151Z,28.20
2023-02-05T21:47:48.224Z,28.20
2023-02-05T21:50:14.564Z,28.20
2023-02-05T21:52:40.676Z,28.20
2023-02-05T21:55:07.196Z,28.30
2023-02-05T21:57:33.292Z,28.20
2023-02-05T21:59:59.425Z,28.20
2023-02-05T22:02:25.504Z,28.20
2023-02-05T22:04:51.683Z,28.20
2023-02-05T22:07:17.838Z,28.20
2023-02-05T22:09:43.939Z,28.20
2023-02-05T22:12:10.171Z,28.20
2023-02-05T22:14:36.221Z,28.20
2023-02-05T22:17:02.321Z,28.20
2023-02-05T22:19:28.656Z,28.30
2023-02-05T22:21:54.706Z,28.30
2023-02-05T22:24:24.407Z,28.20
2023-02-05T22:26:50.647Z,28.20
2023-02-05T22:29:19.176Z,28.20
2023-02-05T22:31:49.348Z,28.20
2023-02-05T22:34:15.444Z,28.20
2023-02-05T22:36:41.793Z,28.20
2023-02-05T22:39:07.940Z,28.20
2023-02-05T22:41:37.498Z,28.20
2023-02-05T22:44:05.385Z,28.20
2023-02-05T22:46:34.298Z,28.30
2023-02-05T22:49:01.887Z,28.30
2023-02-05T22:51:31.506Z,28.30
2023-02-05T22:53:58.559Z,28.30
2023-02-05T22:56:25.320Z,28.30
2023-02-05T22:58:52.258Z,28.30
2023-02-05T23:01:21.112Z,28.20
2023-02-05T23:03:49.936Z,28.20
2023-02-05T23:06:19.538Z,28.30
2023-02-05T23:08:50.831Z,28.30
2023-02-05T23:11:17.087Z,28.30
2023-02-05T23:13:43.128Z,28.30
2023-02-05T23:16:30.098Z,28.30
2023-02-05T23:18:59.774Z,28.40
2023-02-05T23:21:28.089Z,28.30
2023-02-05T23:23:54.333Z,28.30
2023-02-05T23:26:23.071Z,28.30
2023-02-05T23:28:51.255Z,28.40
2023-02-05T23:31:18.661Z,28.40
2023-02-05T23:33:44.849Z,28.40
2023-02-05T23:36:11.460Z,28.40
2023-02-05T23:38:38.023Z,28.30
2023-02-05T23:41:05.079Z,28.30
2023-02-05T23:43:32.266Z,28.30
2023-02-05T23:45:58.671Z,28.40
2023-02-05T23:48:24.890Z,28.40
2023-02-05T23:50:52.749Z,28.40
2023-02-05T23:53:22.437Z,28.40
2023-02-05T23:55:50.693Z,28.40
2023-02-05T23:58:18.611Z,28.40
